Time;durP1;ratioP1;P1;durP2;ratioP2;P2;SDS_P1;SDS_P2;PMS_P1;PMS_P2;Temp;Humidity;BMP_temperature;BMP_pressure;BME280_temperature;BME280_humidity;BME280_pressure;Samples;Min_cycle;Max_cycle;Signal;HPM_P1;HPM_P2
2021/12/15 00:00:59;;;;;;;2.10;1.90;;;;;;;0.21;78.70;96924.09;5093804;28;20032;-66
2021/12/15 00:03:25;;;;;;;2.92;2.42;;;;;;;0.12;78.89;96929.19;5092561;28;20027;-67
2021/12/15 00:05:51;;;;;;;2.58;2.28;;;;;;;0.03;79.21;96935.06;5093814;28;20055;-68
2021/12/15 00:08:17;;;;;;;4.03;2.35;;;;;;;0.01;79.63;96928.19;5093601;28;20416;-68
2021/12/15 00:10:46;;;;;;;2.72;2.40;;;;;;;-0.02;79.53;96921.31;5093856;28;20030;-66
2021/12/15 00:13:14;;;;;;;2.90;2.50;;;;;;;0.01;79.81;96929.06;5093653;28;20032;-65
2021/12/15 00:15:40;;;;;;;2.38;2.08;;;;;;;-0.05;79.20;96924.72;5093557;28;20535;-69
2021/12/15 00:18:06;;;;;;;2.78;2.17;;;;;;;-0.14;79.34;96930.63;5093496;28;20070;-63
2021/12/15 00:20:33;;;;;;;2.50;2.17;;;;;;;-0.17;79.59;96929.72;5093325;28;20027;-66
2021/12/15 00:22:59;;;;;;;2.20;2.00;;;;;;;-0.19;79.88;96929.72;5093561;28;20066;-70
2021/12/15 00:25:28;;;;;;;2.42;2.22;;;;;;;-0.15;79.51;96936.59;5093630;28;20379;-70
2021/12/15 00:27:54;;;;;;;3.05;2.75;;;;;;;-0.18;79.43;96939.16;5093362;28;20032;-64
2021/12/15 00:30:21;;;;;;;4.25;2.00;;;;;;;-0.16;79.23;96937.47;5093527;28;20032;-67
2021/12/15 00:32:46;;;;;;;2.75;2.45;;;;;;;-0.21;79.45;96935.69;5093384;28;20099;-67
2021/12/15 00:35:12;;;;;;;2.55;2.35;;;;;;;-0.21;79.50;96933.97;5093323;28;20054;-67
2021/12/15 00:37:38;;;;;;;2.63;2.38;;;;;;;-0.32;79.38;96925.28;5093319;28;20042;-69
2021/12/15 00:40:09;;;;;;;3.25;2.40;;;;;;;-0.45;80.04;96925.13;5093249;28;20494;-66
2021/12/15 00:42:34;;;;;;;2.58;2.28;;;;;;;-0.45;80.27;96922.56;5093315;28;20080;-66
2021/12/15 00:45:00;;;;;;;2.33;2.13;;;;;;;-0.40;79.77;96920.91;5093329;28;20107;-66
2021/12/15 00:47:26;;;;;;;2.55;2.05;;;;;;;-0.35;79.94;96920.09;5093276;28;20084;-65
2021/12/15 00:49:51;;;;;;;2.47;2.28;;;;;;;-0.41;79.91;96913.19;5093170;28;20033;-63
2021/12/15 00:52:17;;;;;;;2.85;2.42;;;;;;;-0.37;79.51;96921.81;5093074;28;20028;-68
2021/12/15 00:54:43;;;;;;;2.65;2.38;;;;;;;-0.44;79.83;96923.44;5093118;28;20032;-67
2021/12/15 00:57:09;;;;;;;3.10;2.28;;;;;;;-0.44;79.78;96924.31;5093083;28;20105;-62
2021/12/15 00:59:35;;;;;;;3.03;2.25;;;;;;;-0.47;79.58;96918.25;5093135;28;20028;-66
2021/12/15 01:02:02;;;;;;;2.65;2.05;;;;;;;-0.47;79.39;96920.81;5093106;28;20027;-68
2021/12/15 01:04:30;;;;;;;3.50;2.45;;;;;;;-0.57;79.40;96922.44;5093062;28;20501;-66
2021/12/15 01:06:59;;;;;;;2.78;2.10;;;;;;;-0.62;79.86;96916.34;5093042;28;20499;-66
2021/12/15 01:09:40;;;;;;;3.10;2.45;;;;;;;-0.70;79.99;96919.69;5091789;28;20032;-69
2021/12/15 01:12:19;;;;;;;85.35;66.18;;;;;;;-0.74;80.35;96911.91;5093179;28;20086;-66
2021/12/15 01:20:36;;;;;;;3.80;3.40;;;;;;;-0.80;80.22;96910.13;5097197;28;20042;-62
2021/12/15 01:23:07;;;;;;;3.28;2.55;;;;;;;-0.80;80.41;96913.59;5097084;28;20051;-68
2021/12/15 01:25:37;;;;;;;2.40;2.20;;;;;;;-0.77;80.29;96902.47;5096894;28;20389;-63
2021/12/15 01:28:04;;;;;;;3.22;2.22;;;;;;;-0.73;80.16;96899.09;5096773;28;20036;-63
2021/12/15 01:30:34;;;;;;;3.00;2.60;;;;;;;-0.74;80.10;96897.38;5096825;28;20051;-65
2021/12/15 01:33:01;;;;;;;1.77;1.67;;;;;;;-0.73;80.18;96895.69;5096887;28;20032;-68
2021/12/15 01:35:34;;;;;;;3.28;2.40;;;;;;;-0.79;80.27;96881.03;5096827;28;20036;-65
2021/12/15 01:38:00;;;;;;;3.35;2.53;;;;;;;-0.75;80.30;96890.53;5096624;28;20024;-63
2021/12/15 01:40:39;;;;;;;4.43;3.90;;;;;;;-0.73;79.94;96893.09;5096491;28;20031;-68
2021/12/15 01:43:26;;;;;;;7.18;5.38;;;;;;;-0.78;80.02;96899.03;5096459;28;20081;-67
2021/12/15 01:48:42;;;;;;;3.65;2.55;;;;;;;-0.93;80.24;96902.25;5096541;28;20428;-69
2021/12/15 01:51:10;;;;;;;2.55;2.35;;;;;;;-0.96;80.30;96897.06;5096312;28;20024;-68
2021/12/15 01:53:36;;;;;;;2.80;2.50;;;;;;;-1.03;80.97;96888.44;5096304;28;20016;-68
2021/12/15 01:56:05;;;;;;;4.20;2.92;;;;;;;-1.08;81.50;96889.22;5096322;28;20019;-65
2021/12/15 01:58:32;;;;;;;3.33;2.83;;;;;;;-1.11;81.55;96891.75;5096304;28;20055;-66
2021/12/15 02:01:03;;;;;;;4.03;3.22;;;;;;;-1.13;81.59;96886.59;5096241;28;20028;-70
2021/12/15 02:03:29;;;;;;;3.53;3.22;;;;;;;-1.13;81.45;96889.16;5096190;28;20020;-68
2021/12/15 02:05:55;;;;;;;4.30;3.08;;;;;;;-1.20;81.36;96883.06;5096111;28;20023;-66
2021/12/15 02:08:21;;;;;;;4.05;3.55;;;;;;;-1.14;82.85;96877.16;5095912;28;20127;-67
2021/12/15 02:10:48;;;;;;;5.75;3.30;;;;;;;-1.01;83.15;96862.78;5096026;28;20024;-68
2021/12/15 02:13:18;;;;;;;4.45;4.05;;;;;;;-0.87;83.07;96868.09;5095954;28;20028;-68
2021/12/15 02:15:47;;;;;;;8.40;3.80;;;;;;;-0.76;82.71;96857.94;5095871;28;20489;-66
2021/12/15 02:18:17;;;;;;;10.48;4.03;;;;;;;-0.71;81.79;96855.44;5095907;28;20645;-67
2021/12/15 02:20:49;;;;;;;6.45;3.47;;;;;;;-0.58;81.79;96847.00;5095509;28;20420;-62
2021/12/15 02:23:18;;;;;;;5.80;4.10;;;;;;;-0.44;80.57;96843.72;5095795;28;20028;-65
2021/12/15 02:25:45;;;;;;;2.90;2.37;;;;;;;-0.40;80.33;96824.91;5095706;28;20013;-66
2021/12/15 02:28:10;;;;;;;2.78;2.35;;;;;;;-0.30;80.02;96831.03;5095631;28;20111;-67
2021/12/15 02:33:58;;;;;;;3.08;2.53;;;;;;;-0.05;78.80;96839.84;5073366;28;20044;-67
2021/12/15 02:39:09;;;;;;;3.00;2.60;;;;;;;0.12;78.37;96839.97;5095582;28;20089;-68
2021/12/15 02:41:36;;;;;;;3.50;2.55;;;;;;;0.20;78.05;96844.31;5095500;28;20024;-66
2021/12/15 02:44:07;;;;;;;3.28;2.63;;;;;;;0.20;77.83;96836.59;5095537;28;20016;-67
2021/12/15 02:46:34;;;;;;;2.88;2.58;;;;;;;0.26;77.88;96844.38;5095530;28;20119;-66
2021/12/15 02:49:01;;;;;;;5.03;3.08;;;;;;;0.34;77.59;96837.56;5128293;27;20788;-65
2021/12/15 02:51:27;;;;;;;3.55;3.03;;;;;;;0.40;77.43;96836.75;5095266;28;20389;-67
2021/12/15 02:53:58;;;;;;;3.95;2.60;;;;;;;0.51;76.65;96839.38;5095229;28;20073;-63
2021/12/15 02:56:23;;;;;;;;;;;;;;;0.63;76.43;96825.72;5095751;28;20454;-68
2021/12/15 02:58:53;;;;;;;4.50;3.35;;;;;;;0.51;76.90;96834.22;5095172;28;19911;-69
2021/12/15 03:01:32;;;;;;;3.45;2.70;;;;;;;0.51;77.03;96831.66;5095310;28;20031;-68
2021/12/15 03:06:53;;;;;;;4.10;3.13;;;;;;;0.47;77.25;96829.91;5095057;28;20047;-70
2021/12/15 03:17:17;;;;;;;5.70;3.50;;;;;;;0.50;76.90;96854.00;5082482;28;20122;-66
2021/12/15 03:19:42;;;;;;;4.47;3.53;;;;;;;0.55;76.80;96860.88;5094676;28;20590;-67
2021/12/15 03:22:08;;;;;;;4.72;3.40;;;;;;;0.52;76.65;96866.00;5094517;28;20063;-66
2021/12/15 03:24:34;;;;;;;5.38;3.63;;;;;;;0.48;76.87;96870.28;5094654;28;20034;-67
2021/12/15 03:27:04;;;;;;;5.03;3.72;;;;;;;0.43;76.72;96871.94;5094515;28;20069;-68
2021/12/15 03:37:31;;;;;;;;;;;;;;;0.22;77.46;96891.53;5094801;28;20454;-66
2021/12/15 03:40:01;;;;;;;5.00;3.88;;;;;;;0.10;78.20;96888.00;5094260;28;19918;-68
2021/12/15 03:42:31;;;;;;;5.07;4.10;;;;;;;0.03;78.50;96888.75;5094215;28;20485;-65
2021/12/15 03:44:59;;;;;;;6.28;4.47;;;;;;;-0.04;79.11;96890.44;5094433;28;20639;-64
2021/12/15 03:47:29;;;;;;;4.72;4.05;;;;;;;-0.01;79.33;96895.59;5094118;28;20024;-66
2021/12/15 03:49:57;;;;;;;5.03;3.90;;;;;;;0.06;78.95;96903.38;5094231;28;20028;-67
2021/12/15 03:52:24;;;;;;;5.90;4.07;;;;;;;0.08;78.73;96909.41;5093953;28;20063;-65
2021/12/15 03:54:50;;;;;;;5.57;3.60;;;;;;;0.08;78.91;96909.41;5093994;28;20028;-64
2021/12/15 03:57:17;;;;;;;5.65;4.70;;;;;;;0.06;78.62;96914.53;5093965;28;20051;-65
2021/12/15 03:59:44;;;;;;;7.32;5.38;;;;;;;0.07;78.86;96913.69;5094131;28;20065;-69
2021/12/15 04:02:13;;;;;;;6.18;4.45;;;;;;;0.02;78.82;96919.63;5093975;28;20024;-70
2021/12/15 04:04:39;;;;;;;5.03;4.18;;;;;;;0.03;78.81;96917.06;5093840;28;20051;-65
2021/12/15 04:07:06;;;;;;;5.10;3.72;;;;;;;-0.14;78.94;96933.22;5093817;28;20026;-68
2021/12/15 04:09:32;;;;;;;4.57;3.60;;;;;;;-0.07;79.11;96928.97;5093898;28;20355;-69
2021/12/15 04:11:59;;;;;;;4.97;3.90;;;;;;;-0.16;79.06;96939.16;5093872;28;20111;-68
2021/12/15 04:14:30;;;;;;;4.95;3.72;;;;;;;-0.18;79.27;96938.31;5093655;28;20020;-66
2021/12/15 04:17:17;;;;;;;4.15;3.30;;;;;;;-0.29;79.47;96936.47;5093880;28;20039;-65
2021/12/15 04:19:43;;;;;;;6.10;4.00;;;;;;;-0.30;79.82;96929.59;5093524;28;20541;-66
2021/12/15 04:22:08;;;;;;;4.32;3.42;;;;;;;-0.30;79.75;96932.16;5093413;28;20123;-61
2021/12/15 04:24:35;;;;;;;6.72;4.30;;;;;;;-0.35;79.94;96932.94;5093666;28;20050;-68
2021/12/15 04:27:01;;;;;;;5.80;3.85;;;;;;;-0.39;80.18;96937.22;5093475;28;20535;-62
2021/12/15 04:29:28;;;;;;;5.43;4.00;;;;;;;-0.34;80.43;96939.81;5093516;28;20047;-64
2021/12/15 04:32:01;;;;;;;6.60;4.63;;;;;;;-0.30;80.60;96941.59;5093400;28;20020;-68
2021/12/15 04:34:27;;;;;;;5.65;3.95;;;;;;;-0.23;80.63;96945.09;5093498;28;20024;-67
2021/12/15 04:36:53;;;;;;;6.65;4.32;;;;;;;-0.20;80.86;96934.84;5093410;28;20081;-70
2021/12/15 04:39:23;;;;;;;5.45;4.03;;;;;;;-0.23;80.65;96934.81;5093340;28;20031;-68
2021/12/15 04:41:51;;;;;;;5.55;3.90;;;;;;;-0.19;80.84;96936.56;5093499;28;20016;-69
2021/12/15 04:44:20;;;;;;;5.50;3.85;;;;;;;-0.17;81.18;96945.16;5093385;28;20028;-65
2021/12/15 04:46:59;;;;;;;4.85;3.65;;;;;;;-0.11;80.71;96950.38;5093308;28;20073;-67
2021/12/15 04:49:27;;;;;;;5.60;3.55;;;;;;;-0.10;80.68;96938.34;5093227;28;20115;-68
2021/12/15 04:51:52;;;;;;;4.97;3.42;;;;;;;-0.07;80.52;96954.69;5092711;28;20063;-67
2021/12/15 04:54:19;;;;;;;4.13;3.28;;;;;;;-0.12;80.67;96961.50;5092992;28;20102;-68
2021/12/15 04:56:44;;;;;;;5.75;3.80;;;;;;;-0.14;81.01;96961.50;5093146;28;20100;-68
2021/12/15 04:59:10;;;;;;;5.90;3.88;;;;;;;-0.09;81.07;96955.53;5093175;28;20106;-65
2021/12/15 05:01:36;;;;;;;4.68;3.92;;;;;;;-0.07;81.32;96946.13;5093162;28;20020;-65
2021/12/15 05:04:03;;;;;;;6.43;4.28;;;;;;;0.03;81.34;96949.66;5093059;28;20371;-64
2021/12/15 05:06:29;;;;;;;6.90;5.05;;;;;;;0.04;81.92;96956.53;5092948;28;20028;-70
2021/12/15 05:08:55;;;;;;;6.38;4.78;;;;;;;0.17;81.59;96947.22;5092973;28;20358;-68
2021/12/15 05:11:21;;;;;;;5.70;4.55;;;;;;;0.17;81.43;96949.78;5093074;28;20103;-65
2021/12/15 05:13:47;;;;;;;8.30;4.43;;;;;;;0.15;81.71;96956.66;5092963;28;20095;-69
2021/12/15 05:16:16;;;;;;;12.48;10.80;;;;;;;0.22;81.71;96958.44;5093000;28;20036;-68
2021/12/15 05:18:43;;;;;;;9.95;6.97;;;;;;;0.31;81.51;96958.53;5092819;28;20115;-69
2021/12/15 05:21:10;;;;;;;24.95;20.52;;;;;;;0.39;81.68;96953.44;5092660;28;20058;-67
2021/12/15 05:23:36;;;;;;;9.30;8.15;;;;;;;0.47;81.48;96945.78;5092963;28;20095;-65
2021/12/15 05:26:03;;;;;;;8.02;5.82;;;;;;;0.51;81.03;96947.53;5092951;28;20032;-65
2021/12/15 05:28:29;;;;;;;7.93;5.75;;;;;;;0.60;80.63;96946.75;5092677;28;20036;-69
2021/12/15 05:30:56;;;;;;;9.25;5.82;;;;;;;0.66;79.98;96949.38;5092779;28;20017;-71
2021/12/15 05:33:23;;;;;;;6.50;5.28;;;;;;;0.68;79.80;96947.66;5092831;28;20025;-63
2021/12/15 05:35:49;;;;;;;9.95;6.38;;;;;;;0.71;79.53;96941.69;5092990;28;20154;-68
2021/12/15 05:38:17;;;;;;;6.22;5.57;;;;;;;0.74;79.29;96952.88;5092936;28;20056;-67
2021/12/15 05:40:43;;;;;;;7.38;5.65;;;;;;;0.80;79.04;96954.63;5092644;28;20523;-68
2021/12/15 05:43:09;;;;;;;7.65;5.93;;;;;;;0.81;78.68;96965.81;5092787;28;20369;-71
2021/12/15 05:45:37;;;;;;;6.78;5.10;;;;;;;0.79;78.61;96952.91;5125505;28;20028;-67
2021/12/15 05:48:08;;;;;;;7.47;6.20;;;;;;;0.80;78.47;96951.19;5092686;28;20028;-65
2021/12/15 05:50:35;;;;;;;8.68;6.60;;;;;;;0.80;78.35;96957.22;5092687;28;20024;-66
2021/12/15 05:53:01;;;;;;;10.10;6.70;;;;;;;0.83;78.37;96952.09;5092583;28;20385;-62
2021/12/15 05:55:28;;;;;;;7.75;5.97;;;;;;;0.90;77.87;96952.13;5092673;28;20031;-65
2021/12/15 05:57:54;;;;;;;7.05;5.68;;;;;;;0.94;77.52;96957.31;5092866;28;20095;-69
2021/12/15 06:00:25;;;;;;;6.95;5.03;;;;;;;1.02;77.67;96971.97;5092576;28;20110;-65
2021/12/15 06:02:52;;;;;;;7.38;5.53;;;;;;;1.05;77.58;96965.09;5092580;28;20027;-69
2021/12/15 06:05:18;;;;;;;7.85;5.72;;;;;;;1.03;77.82;96968.53;5095728;28;20024;-63
2021/12/15 06:07:45;;;;;;;7.72;5.20;;;;;;;1.11;77.74;96967.72;5094667;28;20367;-62
2021/12/15 06:10:16;;;;;;;8.57;5.47;;;;;;;1.17;77.20;96964.31;5096035;28;20405;-68
2021/12/15 06:12:43;;;;;;;12.55;8.25;;;;;;;1.26;77.21;96955.78;5096196;28;20043;-67
2021/12/15 06:15:09;;;;;;;17.67;10.70;;;;;;;1.26;77.43;96961.81;5095998;28;20455;-68
2021/12/15 06:17:35;;;;;;;12.73;7.05;;;;;;;1.39;76.75;96954.16;5095845;28;20449;-65
2021/12/15 06:20:01;;;;;;;7.03;5.28;;;;;;;1.53;76.31;96956.78;5095857;28;20107;-69
2021/12/15 06:22:29;;;;;;;6.68;5.25;;;;;;;1.60;76.47;96949.94;5095746;28;20127;-62
2021/12/15 06:24:56;;;;;;;6.35;4.88;;;;;;;1.73;75.46;96943.09;5095758;28;20105;-68
2021/12/15 06:27:25;;;;;;;5.60;4.75;;;;;;;1.70;75.55;96964.59;5095722;28;20036;-69
2021/12/15 06:29:52;;;;;;;6.72;4.90;;;;;;;1.80;74.51;96962.06;5095896;28;20023;-67
2021/12/15 06:32:20;;;;;;;7.32;4.32;;;;;;;1.91;74.64;96970.69;5095632;28;20025;-65
2021/12/15 06:34:46;;;;;;;5.38;4.30;;;;;;;1.88;74.89;96973.25;5095562;28;20481;-66
2021/12/15 06:37:12;;;;;;;7.00;5.18;;;;;;;1.80;74.07;96986.13;5095468;28;20031;-68
2021/12/15 06:39:39;;;;;;;8.07;5.15;;;;;;;1.92;73.50;96994.78;5095640;28;20431;-72
2021/12/15 06:42:05;;;;;;;5.50;4.40;;;;;;;1.99;73.83;96993.94;5095379;28;20020;-65
2021/12/15 06:44:31;;;;;;;6.70;4.78;;;;;;;1.98;74.23;96999.94;5095586;28;20019;-69
2021/12/15 07:00:32;;;;;;;6.00;4.80;;;;;;;2.21;72.96;97006.91;5095262;28;20081;-68
2021/12/15 07:02:58;;;;;;;9.30;5.75;;;;;;;2.30;72.64;97012.09;5095050;28;20024;-65
2021/12/15 07:05:25;;;;;;;6.70;5.50;;;;;;;2.31;72.22;97018.13;5093849;28;20478;-68
2021/12/15 07:07:53;;;;;;;7.00;5.35;;;;;;;2.40;72.43;97029.34;5094867;28;20031;-64
2021/12/15 07:10:27;;;;;;;7.05;5.40;;;;;;;2.38;73.42;97027.63;5094870;28;20094;-66
2021/12/15 07:12:53;;;;;;;10.18;5.97;;;;;;;2.44;72.11;97034.53;5094937;28;20131;-64
2021/12/15 07:15:19;;;;;;;6.70;5.25;;;;;;;2.42;71.89;97031.94;5094344;28;20107;-67
2021/12/15 07:17:48;;;;;;;8.23;6.10;;;;;;;2.42;71.84;97033.66;5094663;28;20031;-69
2021/12/15 07:23:02;;;;;;;8.77;6.10;;;;;;;2.52;71.73;97025.06;5094810;28;20083;-67
2021/12/15 07:25:29;;;;;;;7.40;5.72;;;;;;;2.64;71.96;97026.78;5094612;28;20073;-68
2021/12/15 07:27:55;;;;;;;6.55;5.38;;;;;;;2.71;71.49;97032.84;5094450;28;20374;-65
2021/12/15 07:30:21;;;;;;;10.90;5.72;;;;;;;2.74;71.41;97028.53;5094497;28;20470;-67
2021/12/15 07:32:49;;;;;;;7.03;5.90;;;;;;;2.84;70.31;97034.59;5094482;28;20493;-64
2021/12/15 07:35:18;;;;;;;7.00;5.18;;;;;;;2.90;70.57;97044.06;5094440;28;20024;-66
2021/12/15 07:37:44;;;;;;;8.57;5.88;;;;;;;2.97;70.46;97039.75;5094427;28;20024;-67
2021/12/15 07:40:18;;;;;;;5.57;4.50;;;;;;;3.03;70.14;97044.91;5094281;28;20462;-65
2021/12/15 07:43:05;;;;;;;6.80;5.35;;;;;;;3.12;70.90;97046.63;5094267;28;20032;-63
2021/12/15 07:45:34;;;;;;;9.75;5.28;;;;;;;3.26;70.60;97054.41;5094360;28;20431;-66
2021/12/15 07:48:01;;;;;;;6.07;5.47;;;;;;;3.42;69.02;97052.66;5094170;28;20028;-66
2021/12/15 07:50:29;;;;;;;6.78;5.18;;;;;;;3.58;69.29;97050.06;5094039;28;20066;-65
2021/12/15 07:52:55;;;;;;;7.55;5.55;;;;;;;4.55;66.87;97046.22;5094180;28;20016;-69
2021/12/15 07:55:21;;;;;;;12.45;7.85;;;;;;;5.10;64.35;97061.41;5094122;28;20051;-63
2021/12/15 07:57:48;;;;;;;8.25;6.28;;;;;;;5.05;63.47;97063.19;5094054;28;20041;-65
2021/12/15 08:00:15;;;;;;;6.70;5.72;;;;;;;5.00;63.56;97062.38;5093869;28;20055;-64
2021/12/15 08:06:02;;;;;;;6.65;5.32;;;;;;;4.86;63.70;97071.09;5094196;28;20043;-68
2021/12/15 08:08:29;;;;;;;7.78;6.38;;;;;;;5.12;64.27;97076.97;5093768;28;20028;-66
2021/12/15 08:10:57;;;;;;;6.85;5.85;;;;;;;5.35;63.14;97063.81;5093722;28;20055;-64
2021/12/15 08:13:27;;;;;;;5.82;4.95;;;;;;;5.87;61.86;97073.72;5093657;28;20024;-70
2021/12/15 08:15:53;;;;;;;;;;;;;;;7.15;57.95;97072.94;5094289;28;20477;-65
2021/12/15 08:18:20;;;;;;;5.10;4.50;;;;;;;8.46;56.00;97072.31;5093797;28;19912;-66
2021/12/15 08:20:47;;;;;;;5.22;4.63;;;;;;;9.70;52.69;97071.19;5093440;28;20412;-69
2021/12/15 08:23:13;;;;;;;6.32;5.00;;;;;;;10.10;49.15;97073.66;5093547;28;20371;-65
2021/12/15 08:25:39;;;;;;;7.32;5.18;;;;;;;9.82;47.94;97072.63;5092437;28;20081;-65
2021/12/15 08:28:07;;;;;;;6.63;5.05;;;;;;;10.26;49.17;97070.63;5092509;28;20024;-66
2021/12/15 08:30:35;;;;;;;5.78;5.18;;;;;;;10.29;48.51;97075.75;5093566;28;20638;-69
2021/12/15 08:33:05;;;;;;;6.68;5.20;;;;;;;9.93;48.85;97084.56;5093541;28;20062;-67
2021/12/15 08:35:36;;;;;;;6.15;5.15;;;;;;;10.02;46.95;97092.16;5093459;28;20032;-69
2021/12/15 08:38:04;;;;;;;8.75;6.13;;;;;;;10.17;47.39;97092.66;5093449;28;20032;-64
2021/12/15 08:40:30;;;;;;;8.88;4.70;;;;;;;10.19;47.67;97083.00;5093581;28;20134;-64
2021/12/15 08:42:56;;;;;;;6.22;5.03;;;;;;;10.14;47.63;97083.09;5093392;28;20016;-66
2021/12/15 08:45:23;;;;;;;6.10;5.25;;;;;;;10.54;46.68;97082.94;5093263;28;20027;-66
2021/12/15 08:47:51;;;;;;;6.72;5.80;;;;;;;10.39;47.17;97078.97;5093187;28;20043;-67
2021/12/15 08:50:21;;;;;;;7.40;4.90;;;;;;;10.48;48.89;97074.34;5093170;28;20427;-68
2021/12/15 08:52:47;;;;;;;7.35;5.85;;;;;;;10.25;48.40;97072.38;5093217;28;20418;-64
2021/12/15 08:55:13;;;;;;;6.15;5.32;;;;;;;10.13;47.89;97080.53;5093232;28;20059;-68
2021/12/15 08:57:46;;;;;;;5.30;4.80;;;;;;;10.02;47.40;97079.06;5093195;28;20048;-66
2021/12/15 09:00:12;;;;;;;7.85;5.30;;;;;;;9.97;47.38;97073.13;5093258;28;20032;-67
2021/12/15 09:02:38;;;;;;;6.22;5.35;;;;;;;9.92;48.10;97072.38;5093052;28;20025;-69
2021/12/15 09:05:05;;;;;;;7.28;5.25;;;;;;;9.80;47.95;97069.22;5093066;28;20037;-66
2021/12/15 09:07:30;;;;;;;6.65;5.28;;;;;;;9.54;49.40;97062.91;5092940;28;20414;-65
2021/12/15 09:09:56;;;;;;;6.85;5.53;;;;;;;9.22;51.06;97054.13;5093006;28;20051;-68
2021/12/15 09:12:22;;;;;;;6.72;5.43;;;;;;;8.86;50.74;97057.56;5093104;28;20069;-67
2021/12/15 09:14:48;;;;;;;6.07;5.38;;;;;;;8.43;51.39;97067.16;5093021;28;20031;-65
2021/12/15 09:17:14;;;;;;;7.93;6.07;;;;;;;8.23;53.76;97058.00;5093099;28;20047;-66
2021/12/15 09:19:39;;;;;;;6.82;5.82;;;;;;;8.07;53.71;97062.66;5092989;28;20068;-68
2021/12/15 09:22:05;;;;;;;6.90;5.53;;;;;;;7.97;51.79;97055.03;5092720;28;20119;-66
2021/12/15 09:24:31;;;;;;;7.88;5.35;;;;;;;7.76;54.21;97052.81;5092888;28;20024;-67
2021/12/15 09:26:57;;;;;;;7.47;4.95;;;;;;;7.64;54.49;97049.56;5092758;28;20095;-64
2021/12/15 09:29:24;;;;;;;6.65;5.53;;;;;;;7.74;53.03;97055.47;5093007;28;20490;-68
2021/12/15 09:31:50;;;;;;;6.97;5.82;;;;;;;7.72;54.24;97049.41;5092751;28;20230;-68
2021/12/15 09:34:18;;;;;;;7.00;5.80;;;;;;;7.70;53.40;97045.97;5092939;28;20473;-67
2021/12/15 09:36:46;;;;;;;6.03;5.13;;;;;;;7.76;55.06;97048.47;5092826;28;20028;-68
2021/12/15 09:39:14;;;;;;;12.07;7.75;;;;;;;7.84;55.20;97040.50;5094560;28;20028;-70
2021/12/15 09:41:40;;;;;;;5.93;4.80;;;;;;;7.72;54.08;97041.59;5096758;28;20436;-65
2021/12/15 09:44:10;;;;;;;6.50;4.82;;;;;;;7.73;53.20;97042.47;5096810;28;20111;-65
2021/12/15 09:47:39;;;;;;;6.90;5.80;;;;;;;7.63;53.16;97045.25;5096766;28;20473;-66
2021/12/15 10:03:25;;;;;;;4.65;3.95;;;;;;;7.68;51.48;97048.59;5096685;28;20039;-63
2021/12/15 10:06:02;;;;;;;4.72;4.25;;;;;;;7.36;51.77;97042.22;5096329;28;20106;-65
2021/12/15 10:19:42;;;;;;;5.25;3.95;;;;;;;6.91;54.41;97038.63;5096316;28;20118;-68
2021/12/15 10:22:14;;;;;;;5.07;4.03;;;;;;;6.75;54.19;97035.38;5095785;28;20052;-70
2021/12/15 10:24:48;;;;;;;5.90;4.90;;;;;;;6.77;54.12;97035.38;5095948;28;20042;-66
2021/12/15 10:27:35;;;;;;;4.93;4.25;;;;;;;6.74;54.16;97036.25;5095841;28;21030;-66
2021/12/15 10:30:10;;;;;;;5.30;4.43;;;;;;;6.75;55.90;97037.13;5095664;28;20051;-67
2021/12/15 10:32:38;;;;;;;4.00;3.33;;;;;;;6.79;53.97;97034.47;5095675;28;20027;-68
2021/12/15 10:35:29;;;;;;;4.28;3.85;;;;;;;6.81;54.62;97037.03;5095726;28;20074;-67
2021/12/15 10:38:18;;;;;;;5.22;4.32;;;;;;;6.73;54.82;97038.88;5095904;28;20152;-68
2021/12/15 10:41:10;;;;;;;4.53;3.35;;;;;;;6.64;54.20;97045.06;5095482;28;20043;-69
2021/12/15 10:43:40;;;;;;;9.98;3.63;;;;;;;6.55;54.62;97049.53;5095543;28;20504;-66
2021/12/15 10:46:14;;;;;;;5.35;3.72;;;;;;;6.59;54.49;97052.09;5095554;28;20032;-65
2021/12/15 10:48:50;;;;;;;4.80;3.47;;;;;;;6.62;55.26;97052.06;5095344;28;20370;-64
2021/12/15 10:51:21;;;;;;;4.47;3.63;;;;;;;6.59;53.84;97046.88;5094425;28;20028;-66
2021/12/15 10:53:47;;;;;;;6.28;4.10;;;;;;;6.29;54.73;97052.47;5095326;28;20611;-66
2021/12/15 10:56:16;;;;;;;5.85;4.60;;;;;;;6.18;57.20;97045.66;5095189;28;20031;-69
2021/12/15 10:58:45;;;;;;;6.07;4.97;;;;;;;6.09;57.19;97044.91;5095172;28;20031;-67
2021/12/15 11:01:32;;;;;;;6.45;4.53;;;;;;;6.19;57.86;97043.91;5095206;28;20071;-62
2021/12/15 11:04:00;;;;;;;6.63;4.30;;;;;;;6.18;56.74;97043.06;5095160;28;20020;-68
2021/12/15 11:06:32;;;;;;;5.63;4.07;;;;;;;6.27;56.34;97047.31;5095084;28;20028;-67
2021/12/15 11:09:22;;;;;;;5.50;4.43;;;;;;;6.33;56.62;97041.16;5094936;28;20116;-67
2021/12/15 11:12:23;;;;;;;5.70;4.72;;;;;;;6.49;57.48;97033.16;5095001;28;20024;-69
2021/12/15 11:14:59;;;;;;;;;;;;;;;6.40;56.54;97036.72;5095367;28;20040;-66
2021/12/15 11:17:30;;;;;;;8.07;4.35;;;;;;;6.23;57.52;97036.97;5094841;28;19927;-66
2021/12/15 11:20:05;;;;;;;5.18;3.97;;;;;;;6.22;56.38;97036.09;5094862;28;20428;-67
2021/12/15 11:22:45;;;;;;;5.18;4.30;;;;;;;6.30;55.64;97031.66;5094610;28;20119;-67
2021/12/15 11:25:17;;;;;;;4.63;3.55;;;;;;;6.38;55.83;97044.53;5094657;28;20106;-65
2021/12/15 11:27:43;;;;;;;4.93;3.90;;;;;;;6.43;55.45;97037.56;5094621;28;20173;-68
2021/12/15 11:30:19;;;;;;;5.65;4.45;;;;;;;6.38;56.13;97031.56;5127256;27;20107;-67
2021/12/15 11:32:51;;;;;;;5.65;4.45;;;;;;;6.35;56.62;97034.19;5094486;28;20023;-66
2021/12/15 11:35:17;;;;;;;4.82;4.07;;;;;;;6.15;56.52;97043.13;5094624;28;20084;-66
2021/12/15 11:37:59;;;;;;;6.28;4.43;;;;;;;6.04;56.16;97038.03;5094479;28;20043;-69
2021/12/15 11:40:38;;;;;;;5.65;3.95;;;;;;;6.01;56.33;97029.38;5094419;28;20032;-64
2021/12/15 11:43:05;;;;;;;4.55;3.65;;;;;;;6.02;56.07;97034.56;5094442;28;20024;-68
2021/12/15 11:45:31;;;;;;;5.15;3.97;;;;;;;5.90;55.90;97035.56;5094376;28;20539;-68
2021/12/15 11:48:16;;;;;;;4.50;4.05;;;;;;;5.82;56.37;97034.81;5094247;28;20028;-66
2021/12/15 11:50:43;;;;;;;4.53;3.83;;;;;;;5.78;58.02;97026.16;5094190;28;20027;-67
2021/12/15 11:53:31;;;;;;;5.05;4.10;;;;;;;5.81;57.03;97028.75;5094275;28;20045;-64
2021/12/15 11:56:21;;;;;;;5.65;4.60;;;;;;;5.80;58.28;97020.97;5094199;28;20117;-63
2021/12/15 11:58:51;;;;;;;6.43;5.10;;;;;;;5.94;57.07;97026.00;5094268;28;20016;-64
2021/12/15 12:01:41;;;;;;;5.65;4.53;;;;;;;5.99;57.14;97021.59;5093838;28;20119;-68
2021/12/15 12:04:33;;;;;;;6.43;4.70;;;;;;;6.03;58.20;97022.44;5093944;28;20031;-65
2021/12/15 12:07:31;;;;;;;4.88;4.15;;;;;;;6.04;57.16;97017.25;5091031;28;20505;-64
2021/12/15 12:10:01;;;;;;;6.47;5.00;;;;;;;6.07;57.39;97022.41;5081856;28;20085;-65
2021/12/15 12:12:31;;;;;;;6.22;4.95;;;;;;;6.02;57.26;97018.97;5093928;28;20056;-63
2021/12/15 12:14:57;;;;;;;6.70;5.20;;;;;;;5.96;57.20;97015.59;5093984;28;20040;-66
2021/12/15 12:17:33;;;;;;;8.18;4.90;;;;;;;5.98;57.29;97013.84;5093601;28;20047;-66
2021/12/15 12:20:08;;;;;;;10.48;6.38;;;;;;;5.97;58.10;97017.31;5093716;28;20042;-66
2021/12/15 12:22:35;;;;;;;6.03;4.82;;;;;;;6.02;58.44;97015.53;5093712;28;20044;-65
2021/12/15 12:25:07;;;;;;;6.45;5.05;;;;;;;6.01;58.53;97017.25;5093705;28;20028;-67
2021/12/15 12:27:34;;;;;;;5.95;4.32;;;;;;;5.94;57.19;97011.28;5093701;28;20028;-68
2021/12/15 12:30:06;;;;;;;6.60;4.82;;;;;;;5.86;57.21;97009.66;5093540;28;20028;-66
2021/12/15 12:32:31;;;;;;;7.45;5.38;;;;;;;5.69;58.91;97015.91;5093555;28;20032;-63
2021/12/15 12:34:57;;;;;;;8.13;6.13;;;;;;;5.55;58.84;97014.31;5093658;28;20531;-63
2021/12/15 12:37:23;;;;;;;8.82;6.18;;;;;;;5.44;59.27;97011.81;5093410;28;20035;-67
2021/12/15 12:39:54;;;;;;;8.88;6.95;;;;;;;5.34;59.24;97014.50;5093530;28;20034;-63
2021/12/15 12:42:30;;;;;;;6.32;5.38;;;;;;;5.26;59.69;97007.66;5093315;28;20028;-67
2021/12/15 12:45:10;;;;;;;7.20;5.45;;;;;;;5.12;59.91;97006.94;5093295;28;20486;-68
2021/12/15 12:47:42;;;;;;;6.72;5.22;;;;;;;5.10;60.63;97011.28;5093374;28;20036;-67
2021/12/15 13:01:13;;;;;;;5.68;4.50;;;;;;;4.89;60.80;97023.53;5093366;28;20355;-66
2021/12/15 13:03:54;;;;;;;4.47;4.07;;;;;;;4.83;60.06;97013.22;5093139;28;20462;-67
2021/12/15 13:06:24;;;;;;;5.25;4.32;;;;;;;4.65;60.20;97026.31;5093163;28;20024;-63
2021/12/15 13:08:59;;;;;;;5.80;4.55;;;;;;;4.68;60.66;97026.28;5093073;28;20067;-65
2021/12/15 13:11:38;;;;;;;6.78;4.32;;;;;;;4.76;60.05;97021.03;5093140;28;20016;-65
2021/12/15 13:14:35;;;;;;;7.03;4.72;;;;;;;4.84;59.95;97026.16;5094762;28;20028;-69
2021/12/15 13:17:07;;;;;;;6.45;5.10;;;;;;;4.84;59.90;97033.09;5096700;28;20446;-64
2021/12/15 13:19:40;;;;;;;7.25;5.50;;;;;;;4.77;60.24;97024.50;5097049;28;20042;-62